Terminal Aerodrome Forecast
Issued by NWS Hastings, NE

Home | Current Version | Previous Version | Text Only | Print | Product List | Glossary On
Versions: 1 2 3 4 5 6 7 8 9 10 11 12 13 14
000
FTUS43 KGID 252341
TAFGRI
TAF
KGRI 252341Z 2600/2624 VRB05KT P6SM FEW080 SCT250
     FM261000 24008KT P6SM VCTS SCT080CB BKN150
     FM261800 26008KT P6SM SCT080 BKN150
     FM262300 VRB05KT P6SM SCT150=

USA.gov is the U.S. government's official web portal to all federal, state and local government web resources and services.